createdAt,value
2018-04-06T00:01:30.381Z,23.10
2018-04-06T00:03:02.203Z,25.70
2018-04-06T00:04:34.064Z,27.20
2018-04-06T00:06:05.829Z,25.40
2018-04-06T00:07:37.645Z,25.50
2018-04-06T00:09:09.460Z,26.70
2018-04-06T00:10:41.277Z,29.80
2018-04-06T00:12:13.093Z,27.90
2018-04-06T00:13:45.428Z,26.60
2018-04-06T00:15:16.829Z,29.30
2018-04-06T00:16:48.540Z,29.70
2018-04-06T00:18:20.358Z,31.90
2018-04-06T00:19:52.172Z,27.70
2018-04-06T00:21:24.088Z,30.80
2018-04-06T00:22:55.804Z,31.60
2018-04-06T00:24:27.620Z,30.40
2018-04-06T00:25:59.443Z,31.60
2018-04-06T00:27:31.250Z,31.20
2018-04-06T00:29:03.068Z,30.60
2018-04-06T00:30:34.882Z,29.60
2018-04-06T00:32:06.697Z,31.20
2018-04-06T00:33:38.612Z,30.10
2018-04-06T00:35:10.330Z,31.70
2018-04-06T00:36:42.142Z,32.90
2018-04-06T00:38:13.960Z,32.90
2018-04-06T00:39:45.773Z,30.90
2018-04-06T00:41:17.587Z,30.70
2018-04-06T00:42:49.403Z,31.30
2018-04-06T00:44:21.220Z,32.20
2018-04-06T00:45:53.032Z,34.80
2018-04-06T00:47:24.847Z,34.80
2018-04-06T00:48:56.662Z,33.30
2018-04-06T00:50:28.477Z,35.90
2018-04-06T00:52:00.494Z,36.20
2018-04-06T00:53:32.107Z,35.70
2018-04-06T00:55:03.924Z,34.10
2018-04-06T00:56:35.738Z,35.00
2018-04-06T00:58:07.553Z,34.60
2018-04-06T00:59:39.371Z,33.10
2018-04-06T01:01:11.182Z,31.60
2018-04-06T01:02:42.999Z,34.50
2018-04-06T01:04:14.814Z,33.60
2018-04-06T01:05:46.629Z,30.60
2018-04-06T01:07:18.443Z,29.00
2018-04-06T01:08:50.258Z,28.10
2018-04-06T01:10:22.173Z,27.60
2018-04-06T01:11:53.887Z,25.40
2018-04-06T01:13:25.704Z,25.00
2018-04-06T01:14:57.517Z,22.30
2018-04-06T01:16:29.333Z,22.30
2018-04-06T01:18:01.487Z,19.30
2018-04-06T01:19:32.963Z,18.00
2018-04-06T01:21:04.778Z,20.10
2018-04-06T01:22:36.693Z,20.60
2018-04-06T01:24:08.409Z,21.50
2018-04-06T01:25:40.224Z,21.00
2018-04-06T01:27:12.038Z,18.60
2018-04-06T01:28:44.206Z,19.30
2018-04-06T01:30:15.669Z,19.40
2018-04-06T01:31:47.485Z,19.10
2018-04-06T01:33:19.300Z,21.00
2018-04-06T01:34:51.266Z,20.00
2018-04-06T01:36:22.931Z,19.90
2018-04-06T01:37:54.747Z,20.00
2018-04-06T01:39:26.562Z,20.30
2018-04-06T01:40:58.378Z,21.80
2018-04-06T01:42:30.193Z,21.10
2018-04-06T01:44:02.009Z,21.40
2018-04-06T01:45:33.824Z,17.60
2018-04-06T01:47:05.739Z,19.70
2018-04-06T01:48:37.455Z,20.50
2018-04-06T01:50:09.270Z,22.00
2018-04-06T01:51:41.086Z,20.40
2018-04-06T01:53:13.607Z,20.10
2018-04-06T01:54:44.717Z,20.40
2018-04-06T01:56:16.531Z,19.40
2018-04-06T01:57:48.346Z,17.90
2018-04-06T01:59:20.413Z,20.10
2018-04-06T02:00:51.978Z,19.40
2018-04-06T02:02:23.792Z,19.30
2018-04-06T02:03:55.609Z,19.90
2018-04-06T02:05:27.524Z,19.50
2018-04-06T02:06:59.240Z,20.60
2018-04-06T02:08:31.053Z,19.90
2018-04-06T02:10:02.869Z,18.70
2018-04-06T02:11:34.685Z,19.70
2018-04-06T02:13:06.499Z,19.40
2018-04-06T02:14:38.316Z,18.20
2018-04-06T02:16:10.129Z,18.20
2018-04-06T02:17:41.944Z,18.20
2018-04-06T02:19:13.784Z,15.60
2018-04-06T02:20:45.576Z,15.50
2018-04-06T02:22:17.390Z,15.00
2018-04-06T02:23:49.408Z,15.20
2018-04-06T02:25:21.023Z,16.30
2018-04-06T02:26:52.837Z,15.20
2018-04-06T02:28:24.654Z,15.00
2018-04-06T02:29:56.718Z,14.30
2018-04-06T02:31:28.290Z,15.00
2018-04-06T02:33:00.103Z,14.30
2018-04-06T02:34:31.917Z,13.80
2018-04-06T02:36:03.729Z,14.90
2018-04-06T02:37:35.544Z,15.50
2018-04-06T02:39:07.361Z,14.50
2018-04-06T02:40:39.176Z,14.90
2018-04-06T02:42:11.242Z,16.40
2018-04-06T02:43:42.876Z,16.40
2018-04-06T02:45:14.626Z,15.80
2018-04-06T02:46:46.439Z,15.80
2018-04-06T02:48:18.464Z,17.30
2018-04-06T02:49:50.073Z,16.00
2018-04-06T02:51:21.887Z,16.70
2018-04-06T02:52:53.703Z,19.80
2018-04-06T02:54:25.652Z,19.90
2018-04-06T02:55:57.335Z,21.20
2018-04-06T02:57:29.151Z,19.30
2018-04-06T02:59:00.965Z,20.90
2018-04-06T03:00:32.885Z,19.90
2018-04-06T03:02:04.597Z,21.40
2018-04-06T03:03:36.414Z,20.00
2018-04-06T03:05:08.228Z,22.20
2018-04-06T03:06:40.194Z,21.20
2018-04-06T03:08:11.860Z,21.70
2018-04-06T03:09:43.676Z,22.20
2018-04-06T03:11:15.492Z,21.50
2018-04-06T03:12:47.308Z,21.60
2018-04-06T03:14:19.123Z,19.10
2018-04-06T03:15:50.939Z,19.30
2018-04-06T03:17:22.758Z,20.00
2018-04-06T03:18:54.670Z,21.10
2018-04-06T03:20:26.386Z,20.40
2018-04-06T03:21:58.202Z,19.40
2018-04-06T03:23:30.018Z,19.90
2018-04-06T03:25:01.834Z,19.80
2018-04-06T03:26:33.648Z,20.00
2018-04-06T03:28:05.464Z,19.10
2018-04-06T03:29:37.280Z,19.30
2018-04-06T03:31:09.097Z,17.60
2018-04-06T03:32:40.911Z,18.60
2018-04-06T03:34:12.727Z,18.70
2018-04-06T03:37:16.460Z,19.50
2018-04-06T03:38:48.246Z,18.70
2018-04-06T03:40:19.991Z,18.60
2018-04-06T03:41:51.806Z,18.50
2018-04-06T03:43:23.624Z,18.30
2018-04-06T03:44:55.437Z,19.70
2018-04-06T03:46:27.253Z,19.90
2018-04-06T03:47:59.069Z,19.30
2018-04-06T03:49:30.884Z,19.00
2018-04-06T03:51:02.699Z,19.70
2018-04-06T03:52:34.515Z,19.50
2018-04-06T03:54:06.331Z,19.20
2018-04-06T03:55:38.348Z,19.50
2018-04-06T03:57:09.968Z,20.30
2018-04-06T03:58:41.781Z,19.20
2018-04-06T04:00:13.597Z,21.00
2018-04-06T04:01:45.864Z,20.80
2018-04-06T04:03:17.537Z,21.90
2018-04-06T04:04:49.041Z,21.70
2018-04-06T04:06:20.857Z,25.00
2018-04-06T04:07:52.823Z,25.00
2018-04-06T04:09:24.487Z,24.30
2018-04-06T04:10:56.302Z,25.90
2018-04-06T04:12:28.118Z,25.40
2018-04-06T04:14:00.033Z,24.70
2018-04-06T04:15:31.749Z,26.50
2018-04-06T04:17:03.565Z,24.90
2018-04-06T04:18:35.379Z,25.10
2018-04-06T04:20:07.194Z,25.70
2018-04-06T04:21:39.009Z,26.70
2018-04-06T04:23:10.824Z,23.60
2018-04-06T04:24:42.639Z,23.60
2018-04-06T04:26:14.554Z,23.00
2018-04-06T04:27:46.472Z,23.30
2018-04-06T04:29:18.084Z,23.20
2018-04-06T04:30:49.898Z,22.90
2018-04-06T04:32:22.064Z,22.60
2018-04-06T04:33:53.528Z,22.80
2018-04-06T04:35:25.343Z,23.00
2018-04-06T04:36:57.158Z,24.10
2018-04-06T04:38:29.123Z,23.40
2018-04-06T04:40:00.819Z,22.70
2018-04-06T04:41:32.601Z,23.20
2018-04-06T04:43:04.418Z,21.00
2018-04-06T04:44:36.231Z,21.40
2018-04-06T04:46:08.047Z,19.00
2018-04-06T04:47:39.861Z,20.50
2018-04-06T04:49:11.678Z,22.50
2018-04-06T04:50:43.592Z,21.70
2018-04-06T04:52:15.307Z,21.60
2018-04-06T04:53:47.122Z,20.40
2018-04-06T04:55:18.938Z,20.40
2018-04-06T04:56:50.852Z,19.90
2018-04-06T04:58:22.568Z,19.00
2018-04-06T04:59:54.382Z,18.80
2018-04-06T05:01:26.198Z,17.90
2018-04-06T05:02:58.014Z,16.70
2018-04-06T05:04:29.829Z,17.30
2018-04-06T05:06:01.645Z,16.60
2018-04-06T05:07:33.460Z,14.40
2018-04-06T05:09:05.375Z,15.80
2018-04-06T05:10:37.090Z,15.80
2018-04-06T05:12:08.930Z,15.20
2018-04-06T05:13:40.722Z,16.50
2018-04-06T05:15:12.537Z,15.70
2018-04-06T05:16:44.353Z,16.20
2018-04-06T05:18:16.172Z,16.50
2018-04-06T05:19:47.985Z,16.60
2018-04-06T05:21:19.799Z,16.50
2018-04-06T05:22:51.615Z,16.80
2018-04-06T05:24:23.451Z,16.70
2018-04-06T05:25:55.247Z,17.50
2018-04-06T05:27:27.262Z,14.80
2018-04-06T05:28:59.188Z,16.90
2018-04-06T05:30:30.694Z,17.50
2018-04-06T05:32:02.510Z,16.20
2018-04-06T05:33:34.576Z,16.00
2018-04-06T05:35:06.144Z,17.30
2018-04-06T05:36:37.958Z,15.30
2018-04-06T05:38:09.777Z,15.70
2018-04-06T05:39:41.589Z,15.30
2018-04-06T05:41:13.405Z,16.00
2018-04-06T05:42:45.221Z,14.60
2018-04-06T05:44:17.037Z,17.70
2018-04-06T05:45:48.953Z,19.70
2018-04-06T05:47:20.671Z,17.20
2018-04-06T05:48:52.485Z,17.70
2018-04-06T05:50:24.300Z,16.90
2018-04-06T05:51:56.116Z,14.50
2018-04-06T05:53:27.931Z,16.00
2018-04-06T05:54:59.746Z,15.40
2018-04-06T05:56:31.565Z,17.00
2018-04-06T05:58:03.478Z,16.80
2018-04-06T05:59:35.194Z,18.00
2018-04-06T06:01:07.010Z,16.70
2018-04-06T06:02:38.829Z,18.50
2018-04-06T06:04:10.992Z,17.50
2018-04-06T06:05:42.458Z,16.40
2018-04-06T06:07:14.273Z,18.00
2018-04-06T06:08:46.089Z,17.00
2018-04-06T06:10:18.055Z,18.20
2018-04-06T06:11:49.719Z,16.10
2018-04-06T06:13:21.535Z,16.50
2018-04-06T06:14:53.352Z,16.80
2018-04-06T06:16:25.166Z,16.80
2018-04-06T06:17:56.981Z,17.60
2018-04-06T06:19:28.797Z,19.60
2018-04-06T06:21:00.614Z,18.60
2018-04-06T06:22:32.530Z,29.60
2018-04-06T06:24:04.246Z,19.10
2018-04-06T06:25:36.061Z,18.00
2018-04-06T06:27:07.951Z,19.20
2018-04-06T06:28:39.794Z,18.20
2018-04-06T06:30:11.508Z,20.10
2018-04-06T06:31:43.323Z,17.80
2018-04-06T06:33:15.142Z,17.80
2018-04-06T06:34:47.056Z,17.90
2018-04-06T06:36:18.771Z,18.20
2018-04-06T06:37:50.586Z,16.20
2018-04-06T06:39:22.402Z,17.20
2018-04-06T06:40:54.318Z,17.10
2018-04-06T06:42:26.033Z,16.80
2018-04-06T06:43:57.849Z,16.10
2018-04-06T06:45:29.664Z,16.30
2018-04-06T06:47:01.480Z,14.30
2018-04-06T06:48:33.295Z,16.50
2018-04-06T06:50:05.112Z,16.00
2018-04-06T06:51:36.927Z,16.10
2018-04-06T06:53:08.742Z,16.50
2018-04-06T06:54:40.562Z,16.30
2018-04-06T06:56:12.374Z,15.40
2018-04-06T06:57:44.190Z,15.60
2018-04-06T06:59:16.206Z,16.60
2018-04-06T07:00:47.821Z,17.00
2018-04-06T07:02:19.637Z,16.70
2018-04-06T07:03:51.452Z,17.20
2018-04-06T07:05:23.519Z,16.60
2018-04-06T07:06:55.083Z,18.80
2018-04-06T07:08:26.926Z,15.70
2018-04-06T07:09:58.714Z,17.30
2018-04-06T07:11:30.530Z,17.40
2018-04-06T07:13:02.345Z,17.70
2018-04-06T07:14:34.161Z,16.50
2018-04-06T07:16:05.977Z,16.20
2018-04-06T07:17:38.043Z,16.10
2018-04-06T07:19:09.608Z,16.90
2018-04-06T07:20:41.424Z,16.80
2018-04-06T07:22:13.240Z,16.70
2018-04-06T07:23:45.056Z,16.60
2018-04-06T07:25:16.872Z,16.70
2018-04-06T07:26:48.693Z,16.40
2018-04-06T07:28:20.503Z,17.20
2018-04-06T07:29:52.424Z,17.50
2018-04-06T07:31:24.133Z,18.10
2018-04-06T07:32:55.952Z,17.10
2018-04-06T07:34:27.765Z,16.30
2018-04-06T07:35:59.932Z,17.70
2018-04-06T07:37:31.400Z,17.10
2018-04-06T07:39:03.213Z,17.90
2018-04-06T07:40:35.029Z,18.20
2018-04-06T07:42:06.846Z,17.10
2018-04-06T07:43:38.662Z,17.90
2018-04-06T07:45:10.479Z,19.20
2018-04-06T07:46:42.295Z,18.50
2018-04-06T07:48:14.107Z,20.10
2018-04-06T07:49:45.923Z,18.90
2018-04-06T07:51:17.738Z,18.10
2018-04-06T07:52:49.554Z,19.00
2018-04-06T07:54:21.470Z,20.00
2018-04-06T07:55:53.185Z,20.10
2018-04-06T07:57:25.008Z,20.90
2018-04-06T07:58:56.822Z,21.60
2018-04-06T08:00:28.733Z,21.20
2018-04-06T08:02:00.447Z,20.70
2018-04-06T08:03:32.263Z,23.40
2018-04-06T08:05:04.077Z,23.90
2018-04-06T08:06:36.143Z,24.20
2018-04-06T08:08:07.708Z,25.40
2018-04-06T08:09:39.523Z,25.00
2018-04-06T08:11:11.339Z,26.60
2018-04-06T08:12:43.254Z,25.40
2018-04-06T08:14:14.968Z,24.90
2018-04-06T08:17:18.598Z,27.00
2018-04-06T08:18:50.413Z,29.00
2018-04-06T08:20:22.227Z,27.70
2018-04-06T08:21:54.043Z,30.80
2018-04-06T08:23:25.857Z,29.70
2018-04-06T08:24:57.676Z,26.50
2018-04-06T08:26:29.552Z,28.60
2018-04-06T08:28:01.301Z,26.60
2018-04-06T08:29:33.117Z,24.60
2018-04-06T08:31:05.132Z,24.40
2018-04-06T08:32:36.745Z,25.70
2018-04-06T08:34:08.560Z,25.00
2018-04-06T08:35:40.375Z,23.00
2018-04-06T08:37:12.440Z,20.70
2018-04-06T08:38:44.005Z,19.10
2018-04-06T08:40:15.820Z,19.50
2018-04-06T08:41:47.635Z,19.20
2018-04-06T08:43:19.600Z,19.40
2018-04-06T08:44:51.266Z,18.70
2018-04-06T08:46:23.080Z,18.00
2018-04-06T08:47:54.895Z,18.00
2018-04-06T08:49:26.809Z,18.40
2018-04-06T08:50:58.525Z,17.90
2018-04-06T08:52:30.339Z,17.50
2018-04-06T08:54:02.154Z,17.90
2018-04-06T08:55:33.973Z,18.80
2018-04-06T08:57:05.784Z,20.40
2018-04-06T08:58:37.603Z,20.40
2018-04-06T09:00:09.416Z,21.50
2018-04-06T09:01:41.334Z,22.40
2018-04-06T09:03:13.045Z,21.20
2018-04-06T09:04:44.896Z,22.40
2018-04-06T09:06:16.877Z,21.80
2018-04-06T09:07:48.894Z,22.90
2018-04-06T09:09:20.304Z,22.50
2018-04-06T09:10:52.119Z,23.80
2018-04-06T09:12:23.938Z,24.20
2018-04-06T09:13:55.757Z,23.50
2018-04-06T09:15:27.563Z,24.00
2018-04-06T09:16:59.898Z,24.30
2018-04-06T09:18:31.193Z,26.30
2018-04-06T09:20:03.011Z,23.00
2018-04-06T09:21:34.827Z,22.20
2018-04-06T09:23:06.636Z,21.80
2018-04-06T09:24:38.450Z,25.80
2018-04-06T09:26:10.366Z,23.40
2018-04-06T09:27:42.079Z,21.80
2018-04-06T09:29:13.894Z,22.00
2018-04-06T09:30:45.841Z,23.80
2018-04-06T09:32:17.990Z,23.10
2018-04-06T09:33:49.336Z,25.00
2018-04-06T09:35:21.151Z,22.80
2018-04-06T09:36:52.965Z,21.10
2018-04-06T09:38:25.031Z,25.80
2018-04-06T09:39:56.594Z,22.30
2018-04-06T09:41:28.412Z,20.50
2018-04-06T09:44:32.339Z,18.50
2018-04-06T09:46:03.851Z,18.60
2018-04-06T09:47:35.666Z,19.90
2018-04-06T09:49:07.481Z,20.90
2018-04-06T09:50:39.296Z,20.30
2018-04-06T09:52:11.111Z,20.90
2018-04-06T09:53:42.925Z,19.80
2018-04-06T09:55:14.742Z,18.40
2018-04-06T09:56:46.556Z,17.70
2018-04-06T09:58:18.373Z,17.20
2018-04-06T09:59:50.491Z,18.70
2018-04-06T10:01:22.208Z,17.40
2018-04-06T10:02:54.137Z,16.70
2018-04-06T10:05:57.453Z,15.40
2018-04-06T10:07:29.269Z,14.40
2018-04-06T10:09:01.087Z,13.10
2018-04-06T10:10:32.905Z,12.00
2018-04-06T10:12:04.723Z,12.30
2018-04-06T10:13:36.664Z,14.00
2018-04-06T10:15:08.563Z,13.00
2018-04-06T10:16:40.178Z,11.70
2018-04-06T10:19:43.818Z,11.50
2018-04-06T10:22:47.557Z,11.30
2018-04-06T10:24:19.275Z,12.40
2018-04-06T10:25:51.096Z,13.40
2018-04-06T10:27:22.915Z,13.10
2018-04-06T10:28:54.737Z,12.40
2018-04-06T10:30:27.311Z,12.00
2018-04-06T10:31:58.411Z,11.50
2018-04-06T10:33:30.196Z,12.10
2018-04-06T10:35:02.638Z,11.80
2018-04-06T10:36:33.837Z,11.30
2018-04-06T10:39:37.479Z,11.90
2018-04-06T10:41:09.704Z,12.80
2018-04-06T10:42:41.121Z,14.60
2018-04-06T10:44:12.943Z,13.80
2018-04-06T10:45:44.764Z,13.20
2018-04-06T10:47:16.585Z,11.80
2018-04-06T10:48:48.407Z,13.20
2018-04-06T10:50:20.225Z,12.90
2018-04-06T10:51:52.046Z,13.70
2018-04-06T10:53:23.912Z,13.70
2018-04-06T10:56:27.506Z,57.50
2018-04-06T10:57:59.329Z,21.10
2018-04-06T10:59:31.246Z,27.10
2018-04-06T11:01:02.966Z,30.80
2018-04-06T11:02:34.787Z,36.00
2018-04-06T11:04:06.605Z,36.20
2018-04-06T11:05:38.529Z,40.90
2018-04-06T11:07:10.549Z,17.50
2018-04-06T11:10:14.139Z,12.50
2018-04-06T11:11:45.856Z,10.60
2018-04-06T11:13:17.526Z,9.40
2018-04-06T11:14:49.649Z,9.30
2018-04-06T11:16:21.193Z,12.20
2018-04-06T11:17:53.085Z,11.70
2018-04-06T11:19:24.809Z,10.30
2018-04-06T11:20:56.626Z,11.00
2018-04-06T11:22:28.447Z,10.90
2018-04-06T11:24:00.270Z,14.60
2018-04-06T11:25:32.088Z,14.40
2018-04-06T11:27:03.911Z,11.70
2018-04-06T11:28:36.035Z,13.80
2018-04-06T11:30:07.755Z,14.20
2018-04-06T11:31:39.898Z,11.50
2018-04-06T11:33:11.197Z,10.50
2018-04-06T11:34:43.019Z,11.00
2018-04-06T11:36:15.175Z,13.10
2018-04-06T11:37:46.934Z,9.90
2018-04-06T11:39:18.488Z,10.40
2018-04-06T11:40:50.310Z,11.30
2018-04-06T11:42:22.137Z,11.90
2018-04-06T11:43:54.161Z,10.50
2018-04-06T11:45:25.785Z,12.70
2018-04-06T11:48:29.429Z,11.70
2018-04-06T11:50:01.256Z,10.60
2018-04-06T11:51:33.078Z,9.80
2018-04-06T11:53:04.902Z,11.20
2018-04-06T11:54:36.832Z,22.10
2018-04-06T11:56:08.756Z,51.80
2018-04-06T11:57:40.379Z,20.00
2018-04-06T11:59:12.233Z,14.20
2018-04-06T12:02:15.902Z,368.80
2018-04-06T12:05:19.513Z,281.00
2018-04-06T12:06:51.628Z,337.20
2018-04-06T12:08:23.148Z,367.70
2018-04-06T12:09:54.974Z,157.70
2018-04-06T12:11:27.312Z,230.20
2018-04-06T12:12:59.143Z,283.00
2018-04-06T12:16:02.403Z,131.50
2018-04-06T12:17:34.396Z,26.40
2018-04-06T12:19:06.554Z,43.60
2018-04-06T12:20:37.937Z,14.60
2018-04-06T12:22:09.766Z,7.50
2018-04-06T12:23:41.919Z,31.20
2018-04-06T12:25:13.208Z,26.90
2018-04-06T12:26:45.031Z,209.20
2018-04-06T12:28:17.107Z,17.00
2018-04-06T12:29:48.673Z,43.80
2018-04-06T12:31:20.500Z,340.00
2018-04-06T12:32:52.629Z,147.90
2018-04-06T12:34:24.288Z,489.80
2018-04-06T12:35:55.960Z,106.90
2018-04-06T12:37:27.789Z,132.00
2018-04-06T12:39:00.351Z,44.80
2018-04-06T12:40:31.428Z,126.80
2018-04-06T12:42:03.251Z,107.00
2018-04-06T12:43:35.073Z,56.50
2018-04-06T12:45:06.904Z,56.00
2018-04-06T12:46:38.722Z,134.80
2018-04-06T12:48:10.799Z,38.10
2018-04-06T12:49:42.585Z,107.80
2018-04-06T12:51:14.734Z,56.30
2018-04-06T12:52:47.086Z,122.00
2018-04-06T12:54:17.825Z,45.70
2018-04-06T12:55:50.313Z,106.40
2018-04-06T12:58:53.512Z,136.30
2018-04-06T13:00:25.161Z,93.10
2018-04-06T13:01:56.945Z,115.00
2018-04-06T13:03:28.767Z,81.10
2018-04-06T13:05:00.882Z,18.80
2018-04-06T13:06:32.420Z,15.40
2018-04-06T13:08:04.221Z,70.60
2018-04-06T13:09:36.044Z,49.80
2018-04-06T13:11:08.068Z,85.10
2018-04-06T13:12:39.743Z,12.80
2018-04-06T13:14:11.845Z,118.50
2018-04-06T13:17:15.900Z,18.70
2018-04-06T13:18:47.001Z,92.30
2018-04-06T13:20:18.818Z,66.70
2018-04-06T13:21:50.631Z,168.00
2018-04-06T13:23:22.461Z,84.40
2018-04-06T13:24:54.279Z,87.10
2018-04-06T13:26:26.101Z,129.20
2018-04-06T13:27:57.925Z,19.20
2018-04-06T13:29:29.847Z,26.90
2018-04-06T13:32:33.395Z,8.90
2018-04-06T13:34:05.230Z,83.20
2018-04-06T13:35:37.040Z,93.10
2018-04-06T13:37:08.898Z,96.00
2018-04-06T13:38:40.687Z,40.00
2018-04-06T13:43:16.180Z,55.10
2018-04-06T13:46:20.392Z,22.20
2018-04-06T13:47:51.624Z,53.90
2018-04-06T13:50:55.475Z,13.90
2018-04-06T13:52:27.297Z,184.10
2018-04-06T13:53:59.741Z,154.70
2018-04-06T13:57:02.825Z,24.60
2018-04-06T13:58:34.692Z,46.30
2018-04-06T14:01:38.506Z,132.10
2018-04-06T14:03:09.999Z,164.10
2018-04-06T14:06:14.140Z,90.40
2018-04-06T14:07:45.605Z,12.10
2018-04-06T14:09:17.974Z,17.50
2018-04-06T14:10:49.117Z,21.00
2018-04-06T14:12:20.868Z,6.80
2018-04-06T14:15:24.458Z,7.30
2018-04-06T14:16:56.286Z,8.20
2018-04-06T14:18:28.217Z,7.20
2018-04-06T14:20:00.090Z,7.00
2018-04-06T14:24:36.025Z,7.50
2018-04-06T14:26:07.952Z,7.10
2018-04-06T14:27:39.057Z,8.80
2018-04-06T14:29:10.881Z,7.20
2018-04-06T14:30:42.700Z,7.30
2018-04-06T14:32:14.524Z,7.30
2018-04-06T14:33:47.069Z,7.20
2018-04-06T14:35:18.195Z,7.90
2018-04-06T14:36:50.203Z,8.60
2018-04-06T14:39:53.643Z,11.00
2018-04-06T14:41:25.467Z,8.40
2018-04-06T14:42:57.442Z,8.70
2018-04-06T14:44:29.116Z,8.30
2018-04-06T14:46:00.939Z,7.60
2018-04-06T14:47:32.767Z,7.30
2018-04-06T14:49:04.839Z,8.10
2018-04-06T14:50:36.413Z,7.60
2018-04-06T14:52:08.238Z,9.10
2018-04-06T14:55:11.887Z,8.30
2018-04-06T14:56:44.024Z,8.30
2018-04-06T14:58:15.843Z,7.90
2018-04-06T15:01:19.289Z,8.70
2018-04-06T15:02:51.014Z,8.20
2018-04-06T15:04:22.840Z,9.20
2018-04-06T15:05:55.171Z,9.20
2018-04-06T15:07:26.486Z,9.20
2018-04-06T15:08:58.512Z,9.90
2018-04-06T15:12:02.161Z,8.00
2018-04-06T15:15:06.411Z,8.10
2018-04-06T15:18:09.261Z,8.50
2018-04-06T15:19:41.090Z,8.80
2018-04-06T15:21:14.544Z,8.90
2018-04-06T15:24:16.569Z,9.00
2018-04-06T15:27:20.226Z,8.60
2018-04-06T15:28:52.257Z,9.40
2018-04-06T15:30:23.879Z,9.00
2018-04-06T15:31:55.909Z,401.60
2018-04-06T15:33:27.586Z,317.20
2018-04-06T15:34:59.361Z,275.30
2018-04-06T15:36:31.189Z,388.70
2018-04-06T15:38:03.018Z,385.80
2018-04-06T15:39:35.001Z,333.90
2018-04-06T15:41:06.882Z,337.50
2018-04-06T15:42:38.504Z,357.50
2018-04-06T15:44:10.335Z,343.20
2018-04-06T15:47:13.993Z,442.40
2018-04-06T15:50:17.650Z,393.90
2018-04-06T15:51:49.480Z,452.80
2018-04-06T15:53:21.410Z,442.50
2018-04-06T15:54:53.133Z,466.10
2018-04-06T15:59:29.298Z,396.00
2018-04-06T16:01:00.654Z,406.90
2018-04-06T16:02:32.999Z,381.10
2018-04-06T16:04:04.095Z,417.10
2018-04-06T16:05:35.925Z,377.10
2018-04-06T16:07:07.959Z,402.30
2018-04-06T16:10:11.410Z,323.70
2018-04-06T16:11:43.440Z,388.80
2018-04-06T16:13:15.067Z,487.20
2018-04-06T16:14:46.894Z,519.80
2018-04-06T16:16:18.718Z,544.10
2018-04-06T16:17:50.693Z,526.60
2018-04-06T16:19:22.369Z,596.70
2018-04-06T16:20:54.248Z,637.60
2018-04-06T16:22:26.019Z,596.70
2018-04-06T16:23:57.869Z,608.20
2018-04-06T16:25:29.693Z,647.10
2018-04-06T16:27:02.018Z,626.20
2018-04-06T16:28:33.318Z,606.00
2018-04-06T16:30:05.145Z,588.50
2018-04-06T16:31:36.969Z,602.80
2018-04-06T16:33:08.793Z,607.10
2018-04-06T16:34:40.619Z,496.60
2018-04-06T16:36:13.112Z,516.30
2018-04-06T16:37:44.267Z,500.60
2018-04-06T16:39:16.093Z,530.90
2018-04-06T16:40:47.916Z,455.60
2018-04-06T16:42:20.045Z,512.30
2018-04-06T16:46:55.420Z,146.70
2018-04-06T16:48:27.347Z,236.40
2018-04-06T16:49:58.870Z,39.60
2018-04-06T16:53:03.132Z,56.10
2018-04-06T16:54:34.552Z,57.10
2018-04-06T16:56:06.180Z,28.80
2018-04-06T16:57:38.008Z,110.40
2018-04-06T17:00:41.664Z,122.30
2018-04-06T17:02:13.796Z,70.50
2018-04-06T17:03:45.316Z,64.60
2018-04-06T17:05:17.142Z,55.60
2018-04-06T17:06:49.948Z,34.10
2018-04-06T17:08:20.799Z,164.80
2018-04-06T17:09:52.624Z,125.20
2018-04-06T17:11:24.970Z,63.70
2018-04-06T17:12:56.730Z,83.80
2018-04-06T17:14:28.102Z,259.70
2018-04-06T17:15:59.931Z,143.40
2018-04-06T17:17:31.963Z,116.80
2018-04-06T17:20:35.454Z,162.40
2018-04-06T17:22:07.232Z,146.50
2018-04-06T17:23:39.055Z,210.40
2018-04-06T17:26:42.853Z,150.40
2018-04-06T17:28:14.527Z,109.40
2018-04-06T17:31:18.206Z,168.30
2018-04-06T17:32:50.107Z,98.10
2018-04-06T17:35:53.654Z,36.10
2018-04-06T17:37:25.478Z,43.40
2018-04-06T17:38:57.306Z,115.60
2018-04-06T17:40:29.129Z,57.90
2018-04-06T17:43:32.841Z,38.20
2018-04-06T17:45:04.908Z,40.70
2018-04-06T17:46:36.428Z,164.90
2018-04-06T17:48:08.253Z,73.50
2018-04-06T17:49:40.533Z,48.80
2018-04-06T17:51:12.015Z,41.40
2018-04-06T17:52:43.937Z,50.30
2018-04-06T17:54:16.073Z,65.60
2018-04-06T17:55:47.381Z,66.80
2018-04-06T18:00:23.465Z,74.20
2018-04-06T18:01:54.862Z,54.60
2018-04-06T18:03:26.509Z,141.80
2018-04-06T18:04:58.951Z,117.90
2018-04-06T18:06:30.165Z,150.10
2018-04-06T18:08:01.984Z,92.00
2018-04-06T18:11:05.934Z,111.40
2018-04-06T18:12:37.457Z,73.70
2018-04-06T18:14:09.285Z,48.40
2018-04-06T18:17:12.932Z,216.70
2018-04-06T18:20:16.581Z,98.90
2018-04-06T18:21:48.925Z,174.50
2018-04-06T18:23:20.231Z,175.50
2018-04-06T18:24:52.056Z,177.30
2018-04-06T18:26:23.881Z,71.30
2018-04-06T18:27:56.130Z,62.00
2018-04-06T18:29:27.933Z,171.80
2018-04-06T18:30:59.371Z,288.60
2018-04-06T18:32:31.180Z,199.00
2018-04-06T18:34:03.006Z,116.00
2018-04-06T18:35:34.831Z,291.20
2018-04-06T18:37:06.660Z,98.40
2018-04-06T18:38:38.479Z,265.50
2018-04-06T18:40:10.304Z,248.30
2018-04-06T18:41:42.128Z,159.40
2018-04-06T18:43:13.955Z,135.90
2018-04-06T18:44:45.807Z,164.20
2018-04-06T18:46:17.602Z,270.00
2018-04-06T18:47:50.651Z,176.00
2018-04-06T18:49:21.757Z,120.30
2018-04-06T18:50:53.074Z,177.00
2018-04-06T18:52:24.898Z,307.40
2018-04-06T18:53:57.027Z,305.20
2018-04-06T18:57:00.374Z,278.90
2018-04-06T18:58:32.199Z,279.30
2018-04-06T19:00:04.529Z,238.60
2018-04-06T19:01:35.849Z,381.30
2018-04-06T19:03:08.170Z,465.30
2018-04-06T19:04:40.035Z,244.00
2018-04-06T19:06:11.613Z,157.70
2018-04-06T19:07:43.652Z,476.10
2018-04-06T19:09:16.225Z,294.10
2018-04-06T19:12:18.603Z,342.50
2018-04-06T19:13:50.729Z,266.30
2018-04-06T19:15:22.248Z,309.50
2018-04-06T19:18:25.993Z,332.00
2018-04-06T19:19:58.457Z,321.70
2018-04-06T19:21:30.158Z,196.10
2018-04-06T19:23:01.567Z,313.40
2018-04-06T19:26:05.240Z,382.50
2018-04-06T19:29:08.653Z,250.40
2018-04-06T19:30:41.397Z,313.70
2018-04-06T19:32:12.447Z,207.80
2018-04-06T19:33:44.119Z,352.00
2018-04-06T19:35:16.245Z,393.40
2018-04-06T19:36:47.765Z,308.30
2018-04-06T19:38:20.111Z,94.80
2018-04-06T19:39:51.407Z,72.90
2018-04-06T19:41:23.231Z,301.20
2018-04-06T19:42:55.087Z,492.30
2018-04-06T19:44:27.227Z,330.60
2018-04-06T19:45:58.944Z,386.20
2018-04-06T19:47:30.518Z,384.30
2018-04-06T19:49:02.341Z,328.90
2018-04-06T19:50:34.163Z,273.90
2018-04-06T19:52:05.988Z,99.70
2018-04-06T19:55:10.153Z,22.00
2018-04-06T19:56:41.451Z,4.20
2018-04-06T19:58:13.272Z,3.90
2018-04-06T19:59:45.296Z,4.00
2018-04-06T20:01:16.916Z,4.30
2018-04-06T20:02:48.837Z,3.70
2018-04-06T20:04:20.560Z,4.10
2018-04-06T20:05:52.730Z,4.20
2018-04-06T20:07:24.202Z,4.40
2018-04-06T20:08:56.077Z,4.60
2018-04-06T20:12:00.182Z,4.80
2018-04-06T20:13:31.482Z,5.00
2018-04-06T20:15:03.303Z,4.90
2018-04-06T20:16:35.125Z,5.10
2018-04-06T20:18:07.246Z,4.80
2018-04-06T20:19:38.763Z,4.60
2018-04-06T20:21:10.681Z,4.80
2018-04-06T20:22:42.400Z,5.10
2018-04-06T20:24:14.218Z,4.90
2018-04-06T20:25:47.165Z,4.70
2018-04-06T20:27:18.081Z,4.50
2018-04-06T20:28:49.684Z,4.80
2018-04-06T20:30:21.506Z,5.00
2018-04-06T20:31:53.315Z,4.80
2018-04-06T20:33:25.154Z,4.80
2018-04-06T20:34:56.953Z,5.00
2018-04-06T20:36:28.771Z,5.10
2018-04-06T20:38:00.600Z,5.60
2018-04-06T20:39:32.512Z,4.70
2018-04-06T20:41:04.227Z,5.90
2018-04-06T20:42:36.045Z,5.30
2018-04-06T20:44:07.864Z,5.80
2018-04-06T20:45:39.681Z,6.00
2018-04-06T20:47:11.502Z,6.10
2018-04-06T20:48:43.318Z,6.20
2018-04-06T20:50:15.140Z,6.30
2018-04-06T20:51:46.953Z,6.50
2018-04-06T20:53:18.818Z,6.70
2018-04-06T20:54:50.588Z,6.80
2018-04-06T20:56:22.406Z,5.90
2018-04-06T20:57:54.323Z,6.50
2018-04-06T20:59:26.041Z,6.60
2018-04-06T21:00:57.858Z,6.20
2018-04-06T21:02:29.675Z,6.90
2018-04-06T21:04:01.492Z,6.30
2018-04-06T21:05:33.309Z,5.70
2018-04-06T21:07:05.124Z,6.20
2018-04-06T21:08:36.941Z,7.40
2018-04-06T21:10:08.758Z,7.10
2018-04-06T21:11:40.575Z,6.90
2018-04-06T21:13:12.392Z,5.70